Hovedside
METAR-TAF:

METAR-TAF

Lufthavner :

Östersund-Frösön, Sverige

Åre Östersund lufthavn

breddegrad: 63-11N, lengdegrad: 014-30E, høyde over havet: 376 m

Gjeldene værobservasjon

Denne rapporten ble laget for 38 minutter siden, klokken 07:50 UTC
Flau vind
Temperatur -13°C
Luftfuktighet 85%
Trykk 1010 hPa
Sikt: 2200 m
lett snø

METAR: ESNZ 220750Z 00000KT 2200 -SN VV003 M13/M15 Q1010

Tid: 09:28 (08:28 UTC)

Varsel

Denne rapporten ble laget for 2 timer og 58 minutter siden, klokken 05:30 UTC
Varsel gyldig fra 22. klokken 06 UTC til 22. klokken 15 UTC
Vind 2 kt fra skiftende retning
Sikt 10 km eller mer
Brutte skyer i en høyde av 300 ft
lett snø
Sannsynlighet 40%
fra 22. klokken 06 UTC til 22. klokken 15 UTC
Sikt: 1400 m
Brutte skyer i en høyde av 1000 ft
dis

TAF: ESNZ 220530Z 2206/2215 VRB02KT 9999 -SN BKN003 PROB40 2206/2215 1400 BR BKN010

Værobservasjoner og værvarsel for over 4000 flyplasser (METAR- og TAF-rapporter).

Tilgjengelige stasjoner er representert av de røde og gule prikkene på kartet.

Hold musepekeren over prikken for å se navnet på stasjonen.

Klikk så for å se værobservasjoner og -varsler.

For å forandre kartet kan du klikke på den grønne knappen med svart kryss for å zoome inn, på den grønne knappen med strek for å zoome ut, eller på de grønne pilene for å se tilstøtende kart.


METAR-TAF: